Time;durP1;ratioP1;P1;durP2;ratioP2;P2;SDS_P1;SDS_P2;PMS_P1;PMS_P2;Temp;Humidity;BMP_temperature;BMP_pressure;BME280_temperature;BME280_humidity;BME280_pressure;Samples;Min_cycle;Max_cycle;Signal;HPM_P1;HPM_P2
2022/12/21 00:01:17;;;;;;;140.98;48.88;;;-1.40;99.90;;;;;;5049383;28;20452;-51
2022/12/21 00:03:45;;;;;;;183.13;61.50;;;-1.30;99.90;;;;;;5047970;28;20569;-53
2022/12/21 00:06:11;;;;;;;203.95;52.33;;;-1.30;99.90;;;;;;5049252;28;20039;-54
2022/12/21 00:08:43;;;;;;;246.70;54.28;;;-1.30;99.90;;;;;;5049179;28;20078;-55
2022/12/21 00:11:10;;;;;;;174.20;52.05;;;-1.30;99.90;;;;;;5048888;28;20104;-52
2022/12/21 00:13:35;;;;;;;172.73;54.20;;;-1.40;99.90;;;;;;5049091;28;20047;-53
2022/12/21 00:16:03;;;;;;;148.48;53.58;;;-1.30;99.90;;;;;;5049124;28;20105;-51
2022/12/21 00:18:34;;;;;;;154.77;46.38;;;-1.30;99.90;;;;;;5049058;28;20025;-53
2022/12/21 00:21:10;;;;;;;118.78;43.60;;;-1.20;99.90;;;;;;5049259;28;20058;-52
2022/12/21 00:23:36;;;;;;;177.63;45.25;;;-1.20;99.90;;;;;;5049117;28;20384;-53
2022/12/21 00:26:04;;;;;;;110.05;40.70;;;-1.30;99.90;;;;;;5048829;28;20077;-52
2022/12/21 00:28:30;;;;;;;116.13;40.72;;;-1.30;99.90;;;;;;5048965;28;20025;-52
2022/12/21 00:31:13;;;;;;;115.65;40.30;;;-1.20;99.90;;;;;;5049046;28;20031;-53
2022/12/21 00:33:40;;;;;;;203.57;60.00;;;-1.30;99.90;;;;;;5048926;28;20077;-51
2022/12/21 00:36:08;;;;;;;136.10;47.60;;;-1.40;99.90;;;;;;5048719;28;20032;-52
2022/12/21 00:38:35;;;;;;;145.82;42.75;;;-1.40;99.90;;;;;;5048290;28;20368;-53
2022/12/21 00:41:04;;;;;;;133.02;43.75;;;-1.40;99.90;;;;;;5048907;28;20073;-50
2022/12/21 00:43:32;;;;;;;105.28;39.90;;;-1.40;99.90;;;;;;5048739;28;20025;-50
2022/12/21 00:45:58;;;;;;;110.00;41.22;;;-1.30;99.90;;;;;;5048623;28;20082;-53
2022/12/21 00:48:25;;;;;;;134.50;43.47;;;-1.40;99.90;;;;;;5048655;28;20049;-53
2022/12/21 00:50:51;;;;;;;115.57;41.60;;;-1.40;99.90;;;;;;5048470;28;20112;-53
2022/12/21 00:53:17;;;;;;;113.55;42.65;;;-1.50;99.90;;;;;;5048631;28;20516;-54
2022/12/21 00:55:56;;;;;;;185.50;43.90;;;-1.50;99.90;;;;;;5048650;28;20056;-53
2022/12/21 00:58:23;;;;;;;141.15;42.30;;;-1.60;99.90;;;;;;5048422;28;20024;-52
2022/12/21 01:00:51;;;;;;;124.07;41.70;;;-1.60;99.90;;;;;;5048549;28;20056;-53
2022/12/21 01:03:16;;;;;;;300.05;48.10;;;-1.70;99.90;;;;;;5048239;28;20033;-52
2022/12/21 01:05:48;;;;;;;151.68;43.08;;;-1.70;99.90;;;;;;5048500;28;20032;-51
2022/12/21 01:08:15;;;;;;;184.50;44.08;;;-1.70;99.90;;;;;;5048194;28;20040;-53
2022/12/21 01:10:41;;;;;;;139.38;44.88;;;-1.70;99.90;;;;;;5048399;28;20044;-51
2022/12/21 01:13:07;;;;;;;139.65;43.92;;;-1.70;99.90;;;;;;5048111;28;20049;-51
2022/12/21 01:15:34;;;;;;;135.68;46.42;;;-1.70;99.90;;;;;;5048293;28;20049;-51
2022/12/21 01:17:59;;;;;;;143.52;45.97;;;-1.60;99.90;;;;;;5048192;28;20029;-53
2022/12/21 01:20:25;;;;;;;121.55;44.63;;;-1.60;99.90;;;;;;5048281;28;20037;-52
2022/12/21 01:22:50;;;;;;;130.48;46.00;;;-1.60;99.90;;;;;;5048307;28;20029;-51
2022/12/21 01:25:16;;;;;;;149.18;49.05;;;-1.60;99.90;;;;;;5048238;28;20025;-52
2022/12/21 01:27:42;;;;;;;138.60;47.22;;;-1.60;99.90;;;;;;5048308;28;20037;-54
2022/12/21 01:30:08;;;;;;;133.23;47.65;;;-1.60;99.90;;;;;;5047859;28;20372;-53
2022/12/21 01:32:33;;;;;;;126.63;46.00;;;-1.60;99.90;;;;;;5047989;28;20020;-55
2022/12/21 01:35:00;;;;;;;112.53;43.13;;;-1.50;99.90;;;;;;5048106;28;20017;-54
2022/12/21 01:37:26;;;;;;;176.75;48.03;;;-1.50;99.90;;;;;;5047801;28;20032;-54
2022/12/21 01:39:52;;;;;;;125.82;45.35;;;-1.50;99.90;;;;;;5048150;28;20021;-52
2022/12/21 01:42:17;;;;;;;135.90;45.40;;;-1.40;99.90;;;;;;5047744;28;20029;-51
2022/12/21 01:45:05;;;;;;;110.30;43.00;;;-1.50;99.90;;;;;;5047947;28;20013;-55
2022/12/21 01:47:37;;;;;;;110.43;42.10;;;-1.40;99.90;;;;;;5047729;28;20071;-52
2022/12/21 01:50:22;;;;;;;111.85;42.40;;;-1.50;99.90;;;;;;5048012;28;20044;-53
2022/12/21 01:52:49;;;;;;;108.65;42.00;;;-1.50;99.90;;;;;;5051524;28;20468;-52
2022/12/21 01:55:14;;;;;;;116.65;42.97;;;-1.50;99.90;;;;;;5051461;28;20080;-52
2022/12/21 01:57:40;;;;;;;114.13;43.47;;;-1.60;99.90;;;;;;5051446;28;20107;-52
2022/12/21 02:00:09;;;;;;;106.35;40.92;;;-1.50;99.90;;;;;;5051130;28;20166;-56
2022/12/21 02:02:40;;;;;;;98.18;41.83;;;-1.50;99.90;;;;;;5051301;28;20360;-52
2022/12/21 02:05:38;;;;;;;97.00;38.20;;;-1.60;99.90;;;;;;5051148;28;20036;-51
2022/12/21 02:08:04;;;;;;;88.95;38.17;;;-1.60;99.90;;;;;;5051122;28;20029;-52
2022/12/21 02:10:31;;;;;;;107.82;44.15;;;-1.70;99.90;;;;;;5050920;28;20029;-52
2022/12/21 02:13:03;;;;;;;106.03;40.75;;;-1.60;99.90;;;;;;5051084;28;20041;-52
2022/12/21 02:15:41;;;;;;;95.80;38.47;;;-1.60;99.90;;;;;;5050888;28;20025;-52
2022/12/21 02:18:40;;;;;;;98.88;39.58;;;-1.60;99.90;;;;;;5050799;28;20017;-55
2022/12/21 02:21:27;;;;;;;107.57;39.55;;;-1.50;99.90;;;;;;5050820;28;20033;-52
2022/12/21 02:24:30;;;;;;;101.18;40.13;;;-1.50;99.90;;;;;;5050841;28;20108;-53
2022/12/21 02:27:35;;;;;;;96.43;39.65;;;-1.60;99.90;;;;;;5050940;28;20365;-53
2022/12/21 02:30:36;;;;;;;115.35;41.70;;;-1.70;99.90;;;;;;5050763;28;20025;-52
2022/12/21 02:33:01;;;;;;;127.60;44.65;;;-1.80;99.90;;;;;;5053029;28;20033;-53
2022/12/21 02:35:42;;;;;;;114.00;41.65;;;-1.80;99.90;;;;;;5049245;28;20019;-55
2022/12/21 02:38:29;;;;;;;101.57;39.70;;;-1.80;99.90;;;;;;5050421;28;20021;-52
2022/12/21 02:41:40;;;;;;;110.60;38.92;;;-1.90;99.90;;;;;;5050640;28;20028;-53
2022/12/21 02:44:27;;;;;;;114.80;43.95;;;-2.00;99.90;;;;;;5055576;28;20040;-53
2022/12/21 02:46:55;;;;;;;100.40;42.63;;;-2.00;99.90;;;;;;5050598;28;20025;-51
2022/12/21 02:49:24;;;;;;;121.28;43.88;;;-2.10;99.90;;;;;;5050287;28;20389;-55
2022/12/21 02:52:01;;;;;;;114.00;43.65;;;-2.20;99.90;;;;;;5050425;28;20096;-53
2022/12/21 02:54:27;;;;;;;114.57;43.95;;;-2.20;99.90;;;;;;5050330;28;20369;-51
2022/12/21 02:56:53;;;;;;;115.10;44.95;;;-2.30;99.90;;;;;;5050247;28;20027;-51
2022/12/21 02:59:23;;;;;;;130.07;45.90;;;-2.30;99.90;;;;;;5050312;28;20036;-52
2022/12/21 03:02:04;;;;;;;132.82;47.55;;;-2.40;99.90;;;;;;5050116;28;20081;-53
2022/12/21 03:04:50;;;;;;;146.13;48.22;;;-2.40;99.90;;;;;;5050442;28;20468;-53
2022/12/21 03:07:27;;;;;;;148.23;49.92;;;-2.40;99.90;;;;;;5050118;28;20032;-50
2022/12/21 03:10:17;;;;;;;224.05;52.75;;;-2.30;99.90;;;;;;5049998;28;20027;-55
2022/12/21 03:12:55;;;;;;;209.48;53.65;;;-2.40;99.90;;;;;;5049788;28;20044;-53
2022/12/21 03:15:46;;;;;;;159.20;49.03;;;-2.40;99.90;;;;;;5049978;28;20436;-53
2022/12/21 03:18:38;;;;;;;154.40;51.92;;;-2.40;99.90;;;;;;5049887;28;20022;-50
2022/12/21 03:21:12;;;;;;;161.90;52.30;;;-2.30;99.90;;;;;;5049968;28;20033;-52
2022/12/21 03:23:55;;;;;;;172.50;52.97;;;-2.30;99.90;;;;;;5048791;28;20108;-51
2022/12/21 03:26:31;;;;;;;288.27;57.00;;;-2.30;99.90;;;;;;5049854;28;20029;-55
2022/12/21 03:28:59;;;;;;;365.30;57.17;;;-2.30;99.90;;;;;;5049967;28;20056;-50
2022/12/21 03:31:31;;;;;;;226.02;53.92;;;-2.30;99.90;;;;;;5048131;28;20037;-52
2022/12/21 03:34:09;;;;;;;203.10;50.53;;;-2.30;99.90;;;;;;5049815;28;20032;-53
2022/12/21 03:36:42;;;;;;;145.63;47.22;;;-2.30;99.90;;;;;;5049098;28;20420;-53
2022/12/21 03:39:12;;;;;;;150.35;49.45;;;-2.30;99.90;;;;;;5048710;28;20013;-55
2022/12/21 03:41:55;;;;;;;144.77;47.33;;;-2.30;99.90;;;;;;5048947;28;20424;-52
2022/12/21 03:44:28;;;;;;;126.40;45.85;;;-2.30;99.90;;;;;;5048705;28;20447;-50
2022/12/21 03:47:02;;;;;;;120.07;45.25;;;-2.30;99.90;;;;;;5047325;28;20031;-49
2022/12/21 03:49:36;;;;;;;119.60;44.38;;;-2.30;99.90;;;;;;5048522;28;20441;-51
2022/12/21 03:52:07;;;;;;;137.30;47.30;;;-2.30;99.90;;;;;;5048894;28;20032;-52
2022/12/21 03:55:21;;;;;;;185.35;48.65;;;-2.20;99.90;;;;;;5049248;28;20045;-50
2022/12/21 03:57:47;;;;;;;129.55;45.28;;;-2.20;99.90;;;;;;4971428;28;20018;-52
2022/12/21 04:00:13;;;;;;;129.65;44.83;;;-2.20;99.90;;;;;;5036619;28;20037;-50
2022/12/21 04:02:50;;;;;;;136.00;51.13;;;-2.10;99.90;;;;;;5048016;28;20488;-51
2022/12/21 04:05:18;;;;;;;135.75;46.05;;;-2.10;99.90;;;;;;5049227;28;20440;-51
2022/12/21 04:07:46;;;;;;;130.52;47.45;;;-2.10;99.90;;;;;;5048038;28;20467;-51
2022/12/21 04:10:15;;;;;;;160.20;48.28;;;-2.10;99.90;;;;;;5049118;28;20029;-50
2022/12/21 04:12:41;;;;;;;126.20;46.80;;;-2.10;99.90;;;;;;5049020;28;20056;-52
2022/12/21 04:15:06;;;;;;;139.90;46.15;;;-2.10;99.90;;;;;;5048186;28;20029;-55
2022/12/21 04:17:32;;;;;;;151.80;47.92;;;-2.10;99.90;;;;;;5049180;28;20108;-51
2022/12/21 04:19:58;;;;;;;180.15;47.75;;;-2.10;99.90;;;;;;5049035;28;20035;-52
2022/12/21 04:28:09;;;;;;;162.23;50.50;;;-2.10;99.90;;;;;;5048924;28;20089;-52
2022/12/21 04:30:40;;;;;;;201.75;53.42;;;-2.10;99.90;;;;;;5048890;27;20388;-51
2022/12/21 04:33:07;;;;;;;181.82;51.05;;;-2.20;99.90;;;;;;5048849;28;20020;-52
2022/12/21 04:35:33;;;;;;;147.20;49.75;;;-2.10;99.90;;;;;;5048886;28;20112;-53
2022/12/21 04:37:59;;;;;;;150.85;49.58;;;-2.10;99.90;;;;;;5048872;28;20456;-52
2022/12/21 04:40:25;;;;;;;142.60;47.60;;;-2.10;99.90;;;;;;5048600;28;20480;-51
2022/12/21 04:42:51;;;;;;;144.13;49.17;;;-2.10;99.90;;;;;;5048608;28;20080;-51
2022/12/21 04:45:17;;;;;;;140.35;48.55;;;-2.00;99.90;;;;;;5048721;28;20024;-51
2022/12/21 04:47:43;;;;;;;140.80;49.28;;;-1.90;99.90;;;;;;5048542;28;20124;-52
2022/12/21 04:50:09;;;;;;;142.50;48.25;;;-1.90;99.90;;;;;;5048510;28;20100;-50
2022/12/21 04:52:35;;;;;;;135.38;49.13;;;-2.00;99.90;;;;;;5048752;28;20074;-51
2022/12/21 04:55:02;;;;;;;148.07;51.10;;;-1.90;99.90;;;;;;5048570;28;20017;-53
2022/12/21 04:57:28;;;;;;;171.30;52.22;;;-1.90;99.90;;;;;;5048485;28;20135;-52
2022/12/21 04:59:54;;;;;;;172.82;55.42;;;-1.90;99.90;;;;;;5048681;28;20044;-52
2022/12/21 05:02:20;;;;;;;137.63;48.92;;;-2.00;99.90;;;;;;5048421;27;20033;-52
2022/12/21 05:04:46;;;;;;;139.30;49.30;;;-2.00;99.90;;;;;;5048370;28;20100;-50
2022/12/21 05:07:11;;;;;;;150.32;53.33;;;-2.00;99.90;;;;;;5048267;28;20484;-52
2022/12/21 05:09:37;;;;;;;155.52;49.45;;;-2.00;99.90;;;;;;5048033;28;20064;-51
2022/12/21 05:12:02;;;;;;;144.85;49.50;;;-2.00;99.90;;;;;;5047906;28;20052;-51
2022/12/21 05:14:28;;;;;;;146.05;46.03;;;-2.00;99.90;;;;;;5047814;28;20036;-51
2022/12/21 05:16:54;;;;;;;144.52;49.90;;;-2.00;99.90;;;;;;5048096;28;20025;-54
2022/12/21 05:19:20;;;;;;;149.65;49.13;;;-1.90;99.90;;;;;;5047992;28;20108;-53
2022/12/21 05:21:46;;;;;;;142.18;46.75;;;-1.90;99.90;;;;;;5047897;28;20105;-50
2022/12/21 05:24:12;;;;;;;145.95;49.08;;;-1.90;99.90;;;;;;5047762;28;20028;-52
2022/12/21 05:26:38;;;;;;;160.10;51.80;;;-1.90;99.90;;;;;;5049700;28;20024;-55
2022/12/21 05:29:04;;;;;;;155.00;53.05;;;-1.90;99.90;;;;;;5051815;28;20062;-54
2022/12/21 05:31:30;;;;;;;161.48;51.55;;;-1.90;99.90;;;;;;5051451;28;20104;-52
2022/12/21 05:33:55;;;;;;;154.45;51.95;;;-1.90;99.90;;;;;;5051424;28;20490;-51
2022/12/21 05:36:21;;;;;;;146.55;52.45;;;-1.80;99.90;;;;;;5051277;28;20025;-55
2022/12/21 05:38:47;;;;;;;144.38;47.00;;;-1.80;99.90;;;;;;5051591;28;20471;-52
2022/12/21 05:41:15;;;;;;;170.93;53.22;;;-1.80;99.90;;;;;;5050046;28;20416;-51
2022/12/21 05:43:41;;;;;;;148.63;50.97;;;-1.80;99.90;;;;;;5051284;28;20029;-55
2022/12/21 05:46:09;;;;;;;211.95;54.08;;;-1.80;99.90;;;;;;5051275;28;20101;-51
2022/12/21 05:48:36;;;;;;;208.85;52.17;;;-1.80;99.90;;;;;;5051320;28;20037;-56
2022/12/21 05:51:13;;;;;;;194.85;51.95;;;-1.80;99.90;;;;;;5051012;28;20626;-51
2022/12/21 05:53:44;;;;;;;180.35;55.20;;;-1.90;99.90;;;;;;5051300;28;20091;-53
2022/12/21 05:56:10;;;;;;;168.45;52.42;;;-1.90;99.90;;;;;;5049986;28;20021;-52
2022/12/21 05:58:36;;;;;;;161.15;51.90;;;-1.80;99.90;;;;;;5051117;28;20017;-53
2022/12/21 06:01:05;;;;;;;148.48;49.67;;;-1.80;99.90;;;;;;5051293;28;20105;-52
2022/12/21 06:03:31;;;;;;;146.82;48.95;;;-1.80;99.90;;;;;;5049794;28;20487;-52
2022/12/21 06:06:05;;;;;;;145.88;49.67;;;-1.80;99.90;;;;;;5050197;28;20086;-55
2022/12/21 06:08:31;;;;;;;139.52;48.55;;;-1.80;99.90;;;;;;5049978;28;20025;-55
2022/12/21 06:11:08;;;;;;;146.25;51.90;;;-1.80;99.90;;;;;;5050207;28;20021;-52
2022/12/21 06:13:34;;;;;;;141.48;49.60;;;-1.80;99.90;;;;;;5050619;28;20086;-52
2022/12/21 06:16:09;;;;;;;165.82;53.20;;;-1.80;99.90;;;;;;5050780;28;20109;-56
2022/12/21 06:18:35;;;;;;;140.45;48.28;;;-1.80;99.90;;;;;;5050927;28;20053;-53
2022/12/21 06:21:01;;;;;;;135.00;49.30;;;-1.80;99.90;;;;;;5050793;28;20025;-52
2022/12/21 06:23:26;;;;;;;152.75;50.78;;;-1.80;99.90;;;;;;5050546;28;20035;-54
2022/12/21 06:25:57;;;;;;;139.93;49.90;;;-1.80;99.90;;;;;;5050552;28;20037;-51
2022/12/21 06:28:25;;;;;;;146.65;47.80;;;-1.70;99.90;;;;;;5050545;28;20029;-51
2022/12/21 06:30:54;;;;;;;148.40;51.22;;;-1.70;99.90;;;;;;5050568;27;20033;-52
2022/12/21 06:33:21;;;;;;;138.63;47.67;;;-1.70;99.90;;;;;;5050507;28;20036;-52
2022/12/21 06:35:48;;;;;;;130.77;50.05;;;-1.70;99.90;;;;;;5050756;28;20019;-51
2022/12/21 06:38:14;;;;;;;139.05;48.88;;;-1.70;99.90;;;;;;5049962;28;20032;-51
2022/12/21 06:40:39;;;;;;;145.10;51.72;;;-1.70;99.90;;;;;;5050415;28;20032;-53
2022/12/21 06:43:05;;;;;;;148.43;53.85;;;-1.70;99.90;;;;;;5049129;28;20198;-55
2022/12/21 06:45:31;;;;;;;211.45;72.72;;;-1.60;99.90;;;;;;5050623;28;20037;-53
2022/12/21 06:47:56;;;;;;;162.13;57.53;;;-1.60;99.90;;;;;;5050472;28;20032;-53
2022/12/21 06:50:22;;;;;;;176.00;58.03;;;-1.60;99.90;;;;;;5049952;28;20086;-54
2022/12/21 06:52:49;;;;;;;218.95;55.67;;;-1.60;99.90;;;;;;5049963;28;20082;-56
2022/12/21 06:55:15;;;;;;;156.57;48.28;;;-1.60;99.90;;;;;;5049313;28;20489;-53
2022/12/21 06:57:41;;;;;;;163.90;52.67;;;-1.70;99.90;;;;;;5048923;28;20025;-53
2022/12/21 07:00:09;;;;;;;156.52;53.33;;;-1.70;99.90;;;;;;5048705;28;20025;-54
2022/12/21 07:02:38;;;;;;;169.80;54.25;;;-1.70;99.90;;;;;;5049204;28;20457;-52
2022/12/21 07:05:04;;;;;;;157.18;52.97;;;-1.70;99.90;;;;;;5049062;28;20054;-55
2022/12/21 07:07:29;;;;;;;163.23;50.92;;;-1.60;99.90;;;;;;5049006;28;20029;-55
2022/12/21 07:09:55;;;;;;;159.43;52.45;;;-1.60;99.90;;;;;;5048924;28;20086;-51
2022/12/21 07:12:20;;;;;;;138.13;47.42;;;-1.60;99.90;;;;;;5048623;28;20495;-53
2022/12/21 07:14:46;;;;;;;134.15;47.28;;;-1.60;99.90;;;;;;5048782;28;20029;-55
2022/12/21 07:17:12;;;;;;;118.40;46.78;;;-1.50;99.90;;;;;;5048756;28;20499;-52
2022/12/21 07:19:37;;;;;;;119.45;49.35;;;-1.50;99.90;;;;;;5048878;28;20044;-53
2022/12/21 07:22:03;;;;;;;112.53;47.95;;;-1.40;99.90;;;;;;5048854;28;20098;-52
2022/12/21 07:24:28;;;;;;;121.18;44.85;;;-1.30;99.90;;;;;;5048447;28;20021;-51
2022/12/21 07:26:54;;;;;;;103.82;44.13;;;-1.40;99.90;;;;;;5048720;28;20025;-54
2022/12/21 07:29:20;;;;;;;100.32;42.47;;;-1.30;99.90;;;;;;5048877;28;20053;-52
2022/12/21 07:31:46;;;;;;;102.65;43.30;;;-1.30;99.90;;;;;;5048644;28;20071;-54
2022/12/21 07:34:11;;;;;;;90.22;40.22;;;-1.30;99.90;;;;;;5048364;28;20025;-51
2022/12/21 07:36:37;;;;;;;88.63;39.75;;;-1.20;99.90;;;;;;5048619;28;20049;-51
2022/12/21 07:39:03;;;;;;;98.60;40.47;;;-1.10;99.90;;;;;;5048686;28;20029;-51
2022/12/21 07:41:29;;;;;;;98.15;42.30;;;-1.10;99.90;;;;;;5048311;28;20054;-53
2022/12/21 07:43:54;;;;;;;113.00;49.25;;;-1.00;99.90;;;;;;5048562;27;20036;-51
2022/12/21 07:46:20;;;;;;;98.35;41.47;;;-1.00;99.90;;;;;;5048280;28;20040;-50
2022/12/21 07:48:46;;;;;;;94.15;39.40;;;-0.90;99.90;;;;;;5047399;28;20025;-52
2022/12/21 07:51:12;;;;;;;91.00;40.13;;;-0.70;99.90;;;;;;5046898;28;20078;-52
2022/12/21 07:53:37;;;;;;;95.25;40.47;;;-0.70;99.90;;;;;;5048221;28;20022;-51
2022/12/21 07:56:15;;;;;;;91.78;41.67;;;-0.70;99.90;;;;;;5048265;28;20017;-51
2022/12/21 07:58:41;;;;;;;92.43;42.42;;;-0.60;99.90;;;;;;5048277;28;20025;-51
2022/12/21 08:01:12;;;;;;;98.57;40.85;;;-0.60;99.90;;;;;;5048148;28;20029;-54
2022/12/21 08:03:39;;;;;;;95.22;40.95;;;-0.50;99.90;;;;;;5046913;28;20021;-53
2022/12/21 08:06:06;;;;;;;95.13;41.05;;;-0.60;99.90;;;;;;5047872;28;20445;-53
2022/12/21 08:08:33;;;;;;;82.38;36.85;;;-0.70;99.90;;;;;;5047901;28;20104;-54
2022/12/21 08:10:58;;;;;;;81.50;36.90;;;-0.40;99.90;;;;;;5047959;28;20017;-52
2022/12/21 08:13:24;;;;;;;80.45;36.50;;;-0.50;99.90;;;;;;5047702;28;20037;-50
2022/12/21 08:16:01;;;;;;;90.55;40.60;;;-0.30;99.90;;;;;;5048095;28;20384;-52
2022/12/21 08:18:26;;;;;;;78.53;35.92;;;-0.20;99.90;;;;;;5048191;28;20021;-53
2022/12/21 08:20:54;;;;;;;86.53;39.55;;;-0.10;99.90;;;;;;5047720;28;20073;-53
2022/12/21 08:23:19;;;;;;;80.38;37.15;;;-0.20;99.90;;;;;;5047716;28;20121;-54
2022/12/21 08:25:45;;;;;;;79.78;37.55;;;-0.20;99.90;;;;;;5048026;28;20078;-55
2022/12/21 08:28:12;;;;;;;76.72;36.17;;;-0.10;99.90;;;;;;5047647;28;20381;-52
2022/12/21 08:30:38;;;;;;;76.30;36.45;;;0.00;99.90;;;;;;5047729;28;20440;-54
2022/12/21 08:33:03;;;;;;;79.30;36.63;;;0.00;99.90;;;;;;5046304;28;20028;-52
2022/12/21 08:35:29;;;;;;;70.30;35.70;;;0.20;99.90;;;;;;5047390;28;20502;-55
2022/12/21 08:37:55;;;;;;;78.43;36.55;;;0.20;99.90;;;;;;5047577;28;20021;-51
2022/12/21 08:40:21;;;;;;;71.57;35.83;;;0.30;99.90;;;;;;5047418;28;20033;-53
2022/12/21 08:42:47;;;;;;;65.65;31.27;;;0.50;99.90;;;;;;5047686;28;20387;-53
2022/12/21 08:45:12;;;;;;;65.30;33.33;;;0.60;99.90;;;;;;5047354;28;20484;-52
2022/12/21 08:47:39;;;;;;;61.22;31.83;;;0.70;99.90;;;;;;5047521;28;20031;-51
2022/12/21 08:50:05;;;;;;;58.60;29.35;;;0.70;99.90;;;;;;5047372;28;20410;-51
2022/12/21 08:52:31;;;;;;;59.67;29.73;;;0.90;99.90;;;;;;5047292;28;20025;-50
2022/12/21 08:54:57;;;;;;;59.92;31.63;;;0.90;99.90;;;;;;5047242;28;20056;-51
2022/12/21 08:57:23;;;;;;;62.08;31.77;;;0.80;99.90;;;;;;5047318;28;20052;-53
2022/12/21 08:59:49;;;;;;;55.42;30.60;;;0.80;99.90;;;;;;5045779;28;20502;-53
2022/12/21 09:02:15;;;;;;;60.05;29.17;;;1.00;99.90;;;;;;5045781;28;20021;-53
2022/12/21 09:04:40;;;;;;;59.65;31.45;;;1.20;99.90;;;;;;5047160;28;20033;-51
2022/12/21 09:07:06;;;;;;;66.32;33.33;;;1.30;99.90;;;;;;5047451;28;20096;-52
2022/12/21 09:09:33;;;;;;;72.40;35.78;;;1.40;99.90;;;;;;5047194;28;20055;-52
2022/12/21 09:11:59;;;;;;;63.50;32.35;;;1.40;99.90;;;;;;5046994;28;20060;-51
2022/12/21 09:14:25;;;;;;;69.55;33.20;;;1.30;99.90;;;;;;5046870;28;20026;-52
2022/12/21 09:16:51;;;;;;;73.38;34.20;;;1.30;99.90;;;;;;5047512;28;20040;-53
2022/12/21 09:19:17;;;;;;;68.57;34.08;;;1.30;99.90;;;;;;5047056;28;20029;-53
2022/12/21 09:21:43;;;;;;;68.82;32.97;;;1.30;99.90;;;;;;5047151;28;20025;-52
2022/12/21 09:24:09;;;;;;;66.13;32.22;;;1.20;99.90;;;;;;5046888;28;20020;-53
2022/12/21 09:26:35;;;;;;;63.80;33.60;;;1.10;99.90;;;;;;5046914;28;20029;-54
2022/12/21 09:29:00;;;;;;;65.68;31.90;;;1.10;99.90;;;;;;5047130;28;20029;-52
2022/12/21 09:31:26;;;;;;;58.58;31.35;;;1.00;99.90;;;;;;5046828;28;20108;-53
2022/12/21 09:33:53;;;;;;;69.45;33.60;;;1.00;99.90;;;;;;5046811;28;20021;-56
2022/12/21 09:36:19;;;;;;;65.22;32.50;;;1.10;99.90;;;;;;5046790;28;20029;-53
2022/12/21 09:38:45;;;;;;;65.32;31.42;;;1.10;99.90;;;;;;5046836;28;20070;-50
2022/12/21 09:41:24;;;;;;;68.97;35.00;;;1.10;99.90;;;;;;5046761;28;20061;-50
2022/12/21 09:44:24;;;;;;;67.47;32.20;;;1.20;99.90;;;;;;5046805;28;20065;-51
2022/12/21 09:46:53;;;;;;;62.83;31.88;;;1.20;99.90;;;;;;5046723;28;20032;-51
2022/12/21 09:49:44;;;;;;;71.35;33.08;;;1.30;99.90;;;;;;5046586;28;20025;-49
2022/12/21 09:52:29;;;;;;;72.63;33.42;;;1.40;99.90;;;;;;5046516;27;20037;-50
2022/12/21 09:55:00;;;;;;;71.25;34.17;;;1.50;99.90;;;;;;5045421;28;20025;-53
2022/12/21 09:57:35;;;;;;;72.93;33.65;;;1.60;99.90;;;;;;5045204;28;20073;-50
2022/12/21 10:00:09;;;;;;;70.57;33.97;;;1.80;99.90;;;;;;5046547;28;20017;-49
2022/12/21 10:02:56;;;;;;;64.85;32.05;;;1.90;99.90;;;;;;5046437;28;20019;-53
2022/12/21 10:05:48;;;;;;;64.38;34.70;;;2.10;99.90;;;;;;5046579;28;20383;-53
2022/12/21 10:08:34;;;;;;;70.53;33.95;;;2.30;99.90;;;;;;5055733;28;20396;-49
2022/12/21 10:11:09;;;;;;;69.40;33.08;;;2.40;99.90;;;;;;5046470;28;20060;-52
2022/12/21 10:13:56;;;;;;;68.93;34.20;;;2.50;99.90;;;;;;5049639;28;20041;-50
2022/12/21 10:16:41;;;;;;;70.22;31.90;;;2.50;99.90;;;;;;5048368;28;20048;-53
2022/12/21 10:19:28;;;;;;;62.50;33.13;;;2.50;99.90;;;;;;5049597;28;20013;-53
2022/12/21 10:22:03;;;;;;;65.20;33.90;;;2.40;99.90;;;;;;5049878;28;20481;-52
2022/12/21 10:24:36;;;;;;;66.47;33.97;;;2.50;99.90;;;;;;5049277;28;20017;-54
2022/12/21 10:27:12;;;;;;;62.67;33.97;;;2.60;99.90;;;;;;5049613;28;20471;-52
2022/12/21 10:29:41;;;;;;;59.40;31.95;;;2.60;99.90;;;;;;5049540;28;20115;-53
2022/12/21 10:32:13;;;;;;;58.35;30.80;;;2.60;99.90;;;;;;5049319;28;20380;-53
2022/12/21 10:35:23;;;;;;;61.70;32.03;;;2.70;99.90;;;;;;5049401;28;20029;-51
2022/12/21 10:37:52;;;;;;;63.08;30.90;;;2.60;99.90;;;;;;5056987;28;20396;-52
2022/12/21 10:40:22;;;;;;;69.93;33.72;;;2.60;99.90;;;;;;5049317;28;20052;-53
2022/12/21 10:42:50;;;;;;;77.97;37.33;;;2.60;99.90;;;;;;5049523;28;20121;-52
2022/12/21 10:45:19;;;;;;;65.15;32.45;;;2.40;99.90;;;;;;5049344;28;20025;-52
2022/12/21 10:47:45;;;;;;;71.15;34.17;;;2.40;99.90;;;;;;5049467;28;20048;-49
2022/12/21 10:50:32;;;;;;;71.40;33.28;;;2.50;99.90;;;;;;5049125;28;20476;-50
2022/12/21 10:52:59;;;;;;;70.18;35.67;;;2.50;99.90;;;;;;5047891;28;20021;-52
2022/12/21 10:55:32;;;;;;;66.85;32.75;;;2.50;99.90;;;;;;5049098;28;20013;-52
2022/12/21 10:58:01;;;;;;;68.85;36.30;;;2.50;99.90;;;;;;5048965;28;20005;-53
2022/12/21 11:00:38;;;;;;;72.10;38.13;;;2.50;99.90;;;;;;5048182;28;20025;-54
2022/12/21 11:03:22;;;;;;;79.22;37.60;;;2.50;99.90;;;;;;5049469;28;20534;-55
2022/12/21 11:05:47;;;;;;;67.40;34.28;;;2.50;99.90;;;;;;5049285;28;20093;-55
2022/12/21 11:08:13;;;;;;;76.75;36.50;;;2.50;99.90;;;;;;5048939;28;20029;-52
2022/12/21 11:10:41;;;;;;;68.18;35.08;;;2.60;99.90;;;;;;5048536;28;20032;-53
2022/12/21 11:13:07;;;;;;;66.63;33.67;;;2.60;99.90;;;;;;5047821;28;20063;-54
2022/12/21 11:15:33;;;;;;;68.78;33.63;;;2.70;99.90;;;;;;5048870;28;20029;-51
2022/12/21 11:18:00;;;;;;;61.30;34.20;;;2.80;99.90;;;;;;5047643;28;20028;-53
2022/12/21 11:20:27;;;;;;;71.38;37.13;;;3.00;99.90;;;;;;5048963;28;20033;-53
2022/12/21 11:22:55;;;;;;;69.78;37.08;;;3.00;99.90;;;;;;5048855;28;20160;-52
2022/12/21 11:25:28;;;;;;;67.63;35.15;;;3.20;99.90;;;;;;5048474;28;20471;-52
2022/12/21 11:27:58;;;;;;;68.03;35.47;;;3.20;99.90;;;;;;5048685;28;20396;-55
2022/12/21 11:30:26;;;;;;;65.70;35.15;;;3.10;99.90;;;;;;5048332;28;20040;-51
2022/12/21 11:32:55;;;;;;;69.75;37.42;;;3.20;99.90;;;;;;5048671;28;20048;-52
2022/12/21 11:35:26;;;;;;;63.05;33.63;;;3.30;99.90;;;;;;5048549;28;20021;-52
2022/12/21 11:38:01;;;;;;;74.30;38.92;;;3.30;99.90;;;;;;5048515;28;20025;-51
2022/12/21 11:40:28;;;;;;;73.88;36.13;;;3.10;99.90;;;;;;5048291;28;20025;-51
2022/12/21 11:42:59;;;;;;;70.38;35.42;;;2.90;99.90;;;;;;5048288;28;20049;-52
2022/12/21 11:45:49;;;;;;;65.78;32.95;;;3.00;99.90;;;;;;5048185;28;20052;-49
2022/12/21 11:48:33;;;;;;;68.30;34.13;;;3.10;99.90;;;;;;5048153;28;20108;-50
2022/12/21 11:51:05;;;;;;;73.70;36.45;;;3.10;99.90;;;;;;5048363;28;20108;-51
2022/12/21 11:53:51;;;;;;;66.10;35.47;;;3.00;99.90;;;;;;5048093;28;20018;-50
2022/12/21 11:56:35;;;;;;;74.97;35.17;;;2.90;99.90;;;;;;5048195;28;20112;-51
2022/12/21 11:59:22;;;;;;;71.07;35.00;;;2.90;99.90;;;;;;5048454;28;20025;-53
2022/12/21 12:02:03;;;;;;;72.10;37.03;;;2.80;99.90;;;;;;5048116;28;20437;-51
2022/12/21 12:04:47;;;;;;;67.85;34.80;;;2.90;99.90;;;;;;5046929;28;20017;-54
2022/12/21 12:07:27;;;;;;;79.07;38.55;;;2.90;99.90;;;;;;5047972;28;20025;-51
2022/12/21 12:10:06;;;;;;;91.95;47.65;;;2.90;99.90;;;;;;5047867;28;20021;-50
2022/12/21 12:12:53;;;;;;;75.55;36.92;;;2.90;99.90;;;;;;5047695;28;20392;-54
2022/12/21 12:15:30;;;;;;;90.45;45.70;;;3.00;99.90;;;;;;5047741;28;20017;-53
2022/12/21 12:18:08;;;;;;;85.85;42.72;;;3.10;99.90;;;;;;5047820;28;20024;-52
2022/12/21 12:20:36;;;;;;;70.82;37.35;;;3.10;99.90;;;;;;5047728;28;20028;-55
2022/12/21 12:23:20;;;;;;;86.13;43.67;;;3.20;99.90;;;;;;5047797;28;20028;-54
2022/12/21 12:26:06;;;;;;;85.25;41.67;;;3.30;99.90;;;;;;5047848;28;20029;-55
2022/12/21 12:28:41;;;;;;;69.25;38.38;;;3.50;99.90;;;;;;5047866;28;20392;-51
2022/12/21 12:31:27;;;;;;;66.32;37.30;;;3.50;99.90;;;;;;5047538;28;20508;-53
2022/12/21 12:34:24;;;;;;;56.22;32.50;;;3.70;99.90;;;;;;5047715;28;20025;-52
2022/12/21 12:37:07;;;;;;;56.17;31.65;;;4.00;99.90;;;;;;5047667;28;20021;-54
2022/12/21 12:39:45;;;;;;;58.35;32.10;;;4.10;99.90;;;;;;5047583;28;20021;-51
2022/12/21 12:42:36;;;;;;;61.58;32.40;;;4.00;99.90;;;;;;5029562;28;20033;-52
2022/12/21 12:45:26;;;;;;;63.67;33.78;;;3.80;99.90;;;;;;5047581;28;20108;-55
2022/12/21 12:48:15;;;;;;;72.72;37.90;;;3.70;99.90;;;;;;5047563;28;20021;-56
2022/12/21 12:50:57;;;;;;;115.85;51.67;;;3.70;99.90;;;;;;5050080;28;20121;-51
2022/12/21 12:53:31;;;;;;;93.53;46.75;;;3.60;99.90;;;;;;5047103;28;20985;-51